sensor_id;sensor_type;location;lat;lon;timestamp;P1;durP1;ratioP1;P2;durP2;ratioP2
26858;SDS011;14429;48.346;16.338;2024-02-14T00:00:25;2.08;;;1.35;;
26858;SDS011;14429;48.346;16.338;2024-02-14T00:02:51;1.48;;;1.13;;
26858;SDS011;14429;48.346;16.338;2024-02-14T00:05:16;2.97;;;1.63;;
26858;SDS011;14429;48.346;16.338;2024-02-14T00:07:42;3.78;;;2.00;;
26858;SDS011;14429;48.346;16.338;2024-02-14T00:10:08;1.80;;;1.20;;
26858;SDS011;14429;48.346;16.338;2024-02-14T00:12:34;2.67;;;1.73;;
26858;SDS011;14429;48.346;16.338;2024-02-14T00:15:01;3.90;;;2.03;;
26858;SDS011;14429;48.346;16.338;2024-02-14T00:17:28;2.40;;;1.33;;
26858;SDS011;14429;48.346;16.338;2024-02-14T00:19:53;2.45;;;1.45;;
26858;SDS011;14429;48.346;16.338;2024-02-14T00:22:19;6.88;;;3.15;;
26858;SDS011;14429;48.346;16.338;2024-02-14T00:24:44;1.60;;;1.33;;
26858;SDS011;14429;48.346;16.338;2024-02-14T00:27:10;2.50;;;1.40;;
26858;SDS011;14429;48.346;16.338;2024-02-14T00:29:35;4.13;;;2.08;;
26858;SDS011;14429;48.346;16.338;2024-02-14T00:32:01;3.35;;;1.50;;
26858;SDS011;14429;48.346;16.338;2024-02-14T00:34:28;7.07;;;3.42;;
26858;SDS011;14429;48.346;16.338;2024-02-14T00:36:53;2.92;;;1.48;;
26858;SDS011;14429;48.346;16.338;2024-02-14T00:39:18;2.33;;;1.50;;
26858;SDS011;14429;48.346;16.338;2024-02-14T00:41:45;1.83;;;1.40;;
26858;SDS011;14429;48.346;16.338;2024-02-14T00:44:11;1.83;;;1.20;;
26858;SDS011;14429;48.346;16.338;2024-02-14T00:46:36;1.83;;;1.27;;
26858;SDS011;14429;48.346;16.338;2024-02-14T00:49:02;1.55;;;1.35;;
26858;SDS011;14429;48.346;16.338;2024-02-14T00:51:29;3.58;;;1.60;;
26858;SDS011;14429;48.346;16.338;2024-02-14T00:53:54;3.08;;;1.30;;
26858;SDS011;14429;48.346;16.338;2024-02-14T00:56:20;3.35;;;1.35;;
26858;SDS011;14429;48.346;16.338;2024-02-14T00:58:45;1.33;;;1.10;;
26858;SDS011;14429;48.346;16.338;2024-02-14T01:01:10;2.20;;;1.30;;
26858;SDS011;14429;48.346;16.338;2024-02-14T01:03:36;2.22;;;1.02;;
26858;SDS011;14429;48.346;16.338;2024-02-14T01:06:01;3.45;;;1.88;;
26858;SDS011;14429;48.346;16.338;2024-02-14T01:08:28;5.45;;;3.42;;
26858;SDS011;14429;48.346;16.338;2024-02-14T01:10:54;9.77;;;3.00;;
26858;SDS011;14429;48.346;16.338;2024-02-14T01:13:19;2.17;;;1.30;;
26858;SDS011;14429;48.346;16.338;2024-02-14T01:15:45;3.72;;;1.83;;
26858;SDS011;14429;48.346;16.338;2024-02-14T01:18:10;2.50;;;1.35;;
26858;SDS011;14429;48.346;16.338;2024-02-14T01:20:35;1.33;;;1.23;;
26858;SDS011;14429;48.346;16.338;2024-02-14T01:23:01;2.33;;;1.65;;
26858;SDS011;14429;48.346;16.338;2024-02-14T01:25:28;1.80;;;1.63;;
26858;SDS011;14429;48.346;16.338;2024-02-14T01:27:53;1.85;;;1.50;;
26858;SDS011;14429;48.346;16.338;2024-02-14T01:30:19;1.90;;;1.10;;
26858;SDS011;14429;48.346;16.338;2024-02-14T01:32:44;4.40;;;1.70;;
26858;SDS011;14429;48.346;16.338;2024-02-14T01:35:09;2.70;;;1.27;;
26858;SDS011;14429;48.346;16.338;2024-02-14T01:37:35;1.20;;;1.10;;
26858;SDS011;14429;48.346;16.338;2024-02-14T01:40:00;1.60;;;1.10;;
26858;SDS011;14429;48.346;16.338;2024-02-14T01:42:27;2.53;;;1.33;;
26858;SDS011;14429;48.346;16.338;2024-02-14T01:44:53;3.47;;;1.65;;
26858;SDS011;14429;48.346;16.338;2024-02-14T01:47:18;3.47;;;1.60;;
26858;SDS011;14429;48.346;16.338;2024-02-14T01:49:44;2.13;;;1.42;;
26858;SDS011;14429;48.346;16.338;2024-02-14T01:52:10;2.75;;;1.40;;
26858;SDS011;14429;48.346;16.338;2024-02-14T01:54:35;2.83;;;1.50;;
26858;SDS011;14429;48.346;16.338;2024-02-14T01:57:01;3.63;;;1.55;;
26858;SDS011;14429;48.346;16.338;2024-02-14T01:59:28;2.05;;;1.38;;
26858;SDS011;14429;48.346;16.338;2024-02-14T02:01:54;1.83;;;1.52;;
26858;SDS011;14429;48.346;16.338;2024-02-14T02:04:19;3.10;;;1.52;;
26858;SDS011;14429;48.346;16.338;2024-02-14T02:06:44;2.28;;;1.30;;
26858;SDS011;14429;48.346;16.338;2024-02-14T02:09:10;3.20;;;1.67;;
26858;SDS011;14429;48.346;16.338;2024-02-14T02:11:42;5.32;;;1.25;;
26858;SDS011;14429;48.346;16.338;2024-02-14T02:14:10;2.13;;;1.40;;
26858;SDS011;14429;48.346;16.338;2024-02-14T02:16:37;2.85;;;1.45;;
26858;SDS011;14429;48.346;16.338;2024-02-14T02:19:02;1.63;;;1.35;;
26858;SDS011;14429;48.346;16.338;2024-02-14T02:21:28;2.40;;;1.50;;
26858;SDS011;14429;48.346;16.338;2024-02-14T02:23:54;1.83;;;1.42;;
26858;SDS011;14429;48.346;16.338;2024-02-14T02:26:20;2.97;;;1.30;;
26858;SDS011;14429;48.346;16.338;2024-02-14T02:28:45;1.52;;;1.17;;
26858;SDS011;14429;48.346;16.338;2024-02-14T02:31:11;3.13;;;1.38;;
26858;SDS011;14429;48.346;16.338;2024-02-14T02:33:36;2.38;;;1.40;;
26858;SDS011;14429;48.346;16.338;2024-02-14T02:36:01;3.55;;;1.48;;
26858;SDS011;14429;48.346;16.338;2024-02-14T02:38:27;3.60;;;1.42;;
26858;SDS011;14429;48.346;16.338;2024-02-14T02:40:54;2.92;;;1.55;;
26858;SDS011;14429;48.346;16.338;2024-02-14T02:43:19;2.00;;;1.60;;
26858;SDS011;14429;48.346;16.338;2024-02-14T02:45:45;2.35;;;1.27;;
26858;SDS011;14429;48.346;16.338;2024-02-14T02:48:10;3.00;;;1.60;;
26858;SDS011;14429;48.346;16.338;2024-02-14T02:50:36;3.50;;;1.80;;
26858;SDS011;14429;48.346;16.338;2024-02-14T02:53:01;2.33;;;1.33;;
26858;SDS011;14429;48.346;16.338;2024-02-14T02:55:26;1.70;;;1.23;;
26858;SDS011;14429;48.346;16.338;2024-02-14T02:57:53;1.65;;;1.38;;
26858;SDS011;14429;48.346;16.338;2024-02-14T03:00:19;1.88;;;1.15;;
26858;SDS011;14429;48.346;16.338;2024-02-14T03:02:44;3.80;;;1.50;;
26858;SDS011;14429;48.346;16.338;2024-02-14T03:05:10;2.42;;;1.20;;
26858;SDS011;14429;48.346;16.338;2024-02-14T03:07:36;1.58;;;1.15;;
26858;SDS011;14429;48.346;16.338;2024-02-14T03:10:01;1.42;;;1.10;;
26858;SDS011;14429;48.346;16.338;2024-02-14T03:12:26;3.35;;;1.73;;
26858;SDS011;14429;48.346;16.338;2024-02-14T03:14:53;2.30;;;1.45;;
26858;SDS011;14429;48.346;16.338;2024-02-14T03:17:19;2.60;;;1.58;;
26858;SDS011;14429;48.346;16.338;2024-02-14T03:19:44;2.58;;;1.50;;
26858;SDS011;14429;48.346;16.338;2024-02-14T03:22:09;2.58;;;1.80;;
26858;SDS011;14429;48.346;16.338;2024-02-14T03:24:35;2.60;;;1.45;;
26858;SDS011;14429;48.346;16.338;2024-02-14T03:27:00;2.53;;;1.23;;
26858;SDS011;14429;48.346;16.338;2024-02-14T03:29:26;2.97;;;1.40;;
26858;SDS011;14429;48.346;16.338;2024-02-14T03:31:53;2.45;;;1.52;;
26858;SDS011;14429;48.346;16.338;2024-02-14T03:34:18;2.30;;;1.42;;
26858;SDS011;14429;48.346;16.338;2024-02-14T03:36:43;1.90;;;1.30;;
26858;SDS011;14429;48.346;16.338;2024-02-14T03:39:09;2.80;;;1.50;;
26858;SDS011;14429;48.346;16.338;2024-02-14T03:41:34;1.42;;;1.23;;
26858;SDS011;14429;48.346;16.338;2024-02-14T03:44:00;5.40;;;1.77;;
26858;SDS011;14429;48.346;16.338;2024-02-14T03:46:25;3.70;;;1.83;;
26858;SDS011;14429;48.346;16.338;2024-02-14T03:48:52;2.65;;;1.60;;
26858;SDS011;14429;48.346;16.338;2024-02-14T03:51:17;1.13;;;0.90;;
26858;SDS011;14429;48.346;16.338;2024-02-14T03:53:43;1.65;;;1.40;;
26858;SDS011;14429;48.346;16.338;2024-02-14T03:56:08;2.35;;;1.33;;
26858;SDS011;14429;48.346;16.338;2024-02-14T03:58:33;2.55;;;1.50;;
26858;SDS011;14429;48.346;16.338;2024-02-14T04:00:59;2.03;;;1.38;;
26858;SDS011;14429;48.346;16.338;2024-02-14T04:03:24;2.38;;;1.50;;
26858;SDS011;14429;48.346;16.338;2024-02-14T04:05:51;1.77;;;1.33;;
26858;SDS011;14429;48.346;16.338;2024-02-14T04:08:16;2.90;;;1.80;;
26858;SDS011;14429;48.346;16.338;2024-02-14T04:10:42;1.48;;;1.13;;
26858;SDS011;14429;48.346;16.338;2024-02-14T04:13:07;2.67;;;1.48;;
26858;SDS011;14429;48.346;16.338;2024-02-14T04:15:33;2.47;;;1.50;;
26858;SDS011;14429;48.346;16.338;2024-02-14T04:17:58;6.38;;;1.92;;
26858;SDS011;14429;48.346;16.338;2024-02-14T04:20:24;3.30;;;1.50;;
26858;SDS011;14429;48.346;16.338;2024-02-14T04:22:50;2.10;;;1.42;;
26858;SDS011;14429;48.346;16.338;2024-02-14T04:25:16;2.80;;;0.90;;
26858;SDS011;14429;48.346;16.338;2024-02-14T04:27:41;2.00;;;1.30;;
26858;SDS011;14429;48.346;16.338;2024-02-14T04:30:07;3.50;;;1.73;;
26858;SDS011;14429;48.346;16.338;2024-02-14T04:32:33;2.67;;;1.38;;
26858;SDS011;14429;48.346;16.338;2024-02-14T04:34:58;3.25;;;1.58;;
26858;SDS011;14429;48.346;16.338;2024-02-14T04:37:24;1.95;;;1.55;;
26858;SDS011;14429;48.346;16.338;2024-02-14T04:39:51;2.60;;;1.45;;
26858;SDS011;14429;48.346;16.338;2024-02-14T04:42:16;2.05;;;1.38;;
26858;SDS011;14429;48.346;16.338;2024-02-14T04:44:42;1.70;;;1.30;;
26858;SDS011;14429;48.346;16.338;2024-02-14T04:47:07;2.60;;;1.33;;
26858;SDS011;14429;48.346;16.338;2024-02-14T04:49:33;2.95;;;1.80;;
26858;SDS011;14429;48.346;16.338;2024-02-14T04:51:58;1.92;;;1.75;;
26858;SDS011;14429;48.346;16.338;2024-02-14T04:54:23;2.17;;;1.25;;
26858;SDS011;14429;48.346;16.338;2024-02-14T04:56:50;5.35;;;1.58;;
26858;SDS011;14429;48.346;16.338;2024-02-14T04:59:16;1.73;;;1.38;;
26858;SDS011;14429;48.346;16.338;2024-02-14T05:01:41;2.80;;;1.83;;
26858;SDS011;14429;48.346;16.338;2024-02-14T05:04:06;3.08;;;1.52;;
26858;SDS011;14429;48.346;16.338;2024-02-14T05:06:32;2.55;;;1.60;;
26858;SDS011;14429;48.346;16.338;2024-02-14T05:08:57;4.45;;;2.08;;
26858;SDS011;14429;48.346;16.338;2024-02-14T05:11:23;2.42;;;1.52;;
26858;SDS011;14429;48.346;16.338;2024-02-14T05:13:50;2.63;;;1.63;;
26858;SDS011;14429;48.346;16.338;2024-02-14T05:16:17;3.25;;;1.80;;
26858;SDS011;14429;48.346;16.338;2024-02-14T05:18:43;3.78;;;2.10;;
26858;SDS011;14429;48.346;16.338;2024-02-14T05:21:08;1.65;;;1.25;;
26858;SDS011;14429;48.346;16.338;2024-02-14T05:23:34;6.47;;;2.80;;
26858;SDS011;14429;48.346;16.338;2024-02-14T05:25:59;2.90;;;1.65;;
26858;SDS011;14429;48.346;16.338;2024-02-14T05:28:24;2.47;;;1.48;;
26858;SDS011;14429;48.346;16.338;2024-02-14T05:30:51;2.75;;;1.90;;
26858;SDS011;14429;48.346;16.338;2024-02-14T05:33:17;2.65;;;1.77;;
26858;SDS011;14429;48.346;16.338;2024-02-14T05:35:42;3.72;;;1.92;;
26858;SDS011;14429;48.346;16.338;2024-02-14T05:38:08;3.17;;;1.45;;
26858;SDS011;14429;48.346;16.338;2024-02-14T05:40:33;1.83;;;1.45;;
26858;SDS011;14429;48.346;16.338;2024-02-14T05:42:58;2.92;;;1.70;;
26858;SDS011;14429;48.346;16.338;2024-02-14T05:45:24;2.42;;;1.45;;
26858;SDS011;14429;48.346;16.338;2024-02-14T05:47:51;1.95;;;1.27;;
26858;SDS011;14429;48.346;16.338;2024-02-14T05:50:16;2.85;;;1.52;;
26858;SDS011;14429;48.346;16.338;2024-02-14T05:52:41;3.00;;;1.60;;
26858;SDS011;14429;48.346;16.338;2024-02-14T05:55:07;3.83;;;1.80;;
26858;SDS011;14429;48.346;16.338;2024-02-14T05:57:32;4.22;;;1.38;;
26858;SDS011;14429;48.346;16.338;2024-02-14T05:59:58;2.20;;;1.17;;
26858;SDS011;14429;48.346;16.338;2024-02-14T06:02:23;4.57;;;2.10;;
26858;SDS011;14429;48.346;16.338;2024-02-14T06:04:50;1.55;;;1.17;;
26858;SDS011;14429;48.346;16.338;2024-02-14T06:07:15;3.58;;;1.45;;
26858;SDS011;14429;48.346;16.338;2024-02-14T06:09:41;1.60;;;1.33;;
26858;SDS011;14429;48.346;16.338;2024-02-14T06:12:06;2.72;;;1.65;;
26858;SDS011;14429;48.346;16.338;2024-02-14T06:14:32;3.95;;;1.40;;
26858;SDS011;14429;48.346;16.338;2024-02-14T06:16:57;1.95;;;1.60;;
26858;SDS011;14429;48.346;16.338;2024-02-14T06:19:23;3.72;;;1.55;;
26858;SDS011;14429;48.346;16.338;2024-02-14T06:21:50;1.73;;;1.50;;
26858;SDS011;14429;48.346;16.338;2024-02-14T06:24:15;4.32;;;1.40;;
26858;SDS011;14429;48.346;16.338;2024-02-14T06:26:41;2.45;;;1.50;;
26858;SDS011;14429;48.346;16.338;2024-02-14T06:29:06;2.33;;;1.70;;
26858;SDS011;14429;48.346;16.338;2024-02-14T06:31:31;1.98;;;1.25;;
26858;SDS011;14429;48.346;16.338;2024-02-14T06:33:57;6.18;;;2.22;;
26858;SDS011;14429;48.346;16.338;2024-02-14T06:36:22;3.53;;;1.92;;
26858;SDS011;14429;48.346;16.338;2024-02-14T06:38:49;2.65;;;1.65;;
26858;SDS011;14429;48.346;16.338;2024-02-14T06:41:15;3.13;;;1.80;;
26858;SDS011;14429;48.346;16.338;2024-02-14T06:43:40;3.70;;;2.00;;
26858;SDS011;14429;48.346;16.338;2024-02-14T06:46:05;3.33;;;1.55;;
26858;SDS011;14429;48.346;16.338;2024-02-14T06:48:31;2.25;;;1.65;;
26858;SDS011;14429;48.346;16.338;2024-02-14T06:50:56;2.80;;;1.85;;
26858;SDS011;14429;48.346;16.338;2024-02-14T06:53:22;2.50;;;1.80;;
26858;SDS011;14429;48.346;16.338;2024-02-14T06:55:49;2.97;;;1.58;;
26858;SDS011;14429;48.346;16.338;2024-02-14T06:58:14;4.20;;;1.98;;
26858;SDS011;14429;48.346;16.338;2024-02-14T07:00:40;2.78;;;1.67;;
26858;SDS011;14429;48.346;16.338;2024-02-14T07:03:05;3.25;;;1.80;;
26858;SDS011;14429;48.346;16.338;2024-02-14T07:05:30;2.40;;;1.70;;
26858;SDS011;14429;48.346;16.338;2024-02-14T07:07:56;4.25;;;1.45;;
26858;SDS011;14429;48.346;16.338;2024-02-14T07:10:21;1.75;;;1.48;;
26858;SDS011;14429;48.346;16.338;2024-02-14T07:12:48;2.60;;;1.75;;
26858;SDS011;14429;48.346;16.338;2024-02-14T07:15:14;3.65;;;1.50;;
26858;SDS011;14429;48.346;16.338;2024-02-14T07:17:39;6.88;;;1.83;;
26858;SDS011;14429;48.346;16.338;2024-02-14T07:20:05;4.68;;;1.90;;
26858;SDS011;14429;48.346;16.338;2024-02-14T07:22:31;1.83;;;1.50;;
26858;SDS011;14429;48.346;16.338;2024-02-14T07:24:57;1.83;;;1.50;;
26858;SDS011;14429;48.346;16.338;2024-02-14T07:27:22;3.30;;;2.15;;
26858;SDS011;14429;48.346;16.338;2024-02-14T07:29:49;5.03;;;1.92;;
26858;SDS011;14429;48.346;16.338;2024-02-14T07:32:15;3.08;;;1.88;;
26858;SDS011;14429;48.346;16.338;2024-02-14T07:34:40;2.88;;;2.00;;
26858;SDS011;14429;48.346;16.338;2024-02-14T07:37:06;2.85;;;1.27;;
26858;SDS011;14429;48.346;16.338;2024-02-14T07:39:31;3.22;;;2.20;;
26858;SDS011;14429;48.346;16.338;2024-02-14T07:41:57;3.15;;;1.77;;
26858;SDS011;14429;48.346;16.338;2024-02-14T07:44:23;4.75;;;1.60;;
26858;SDS011;14429;48.346;16.338;2024-02-14T07:46:50;3.13;;;2.10;;
26858;SDS011;14429;48.346;16.338;2024-02-14T07:49:15;3.25;;;1.90;;
26858;SDS011;14429;48.346;16.338;2024-02-14T07:51:40;3.45;;;1.80;;
26858;SDS011;14429;48.346;16.338;2024-02-14T07:54:06;4.28;;;2.03;;
26858;SDS011;14429;48.346;16.338;2024-02-14T07:56:31;3.13;;;2.00;;
26858;SDS011;14429;48.346;16.338;2024-02-14T07:58:57;3.58;;;1.92;;
26858;SDS011;14429;48.346;16.338;2024-02-14T08:01:23;3.45;;;1.73;;
26858;SDS011;14429;48.346;16.338;2024-02-14T08:03:50;2.00;;;1.50;;
26858;SDS011;14429;48.346;16.338;2024-02-14T08:06:15;3.13;;;1.60;;
26858;SDS011;14429;48.346;16.338;2024-02-14T08:08:40;2.78;;;1.80;;
26858;SDS011;14429;48.346;16.338;2024-02-14T08:11:06;2.90;;;1.92;;
26858;SDS011;14429;48.346;16.338;2024-02-14T08:13:32;11.10;;;4.53;;
26858;SDS011;14429;48.346;16.338;2024-02-14T08:15:57;6.03;;;1.80;;
26858;SDS011;14429;48.346;16.338;2024-02-14T08:18:23;4.25;;;1.85;;
26858;SDS011;14429;48.346;16.338;2024-02-14T08:20:49;5.30;;;2.95;;
26858;SDS011;14429;48.346;16.338;2024-02-14T08:23:16;7.95;;;4.13;;
26858;SDS011;14429;48.346;16.338;2024-02-14T08:25:41;3.78;;;2.67;;
26858;SDS011;14429;48.346;16.338;2024-02-14T08:28:07;11.13;;;5.80;;
26858;SDS011;14429;48.346;16.338;2024-02-14T08:30:33;11.60;;;4.72;;
26858;SDS011;14429;48.346;16.338;2024-02-14T08:32:58;3.03;;;2.10;;
26858;SDS011;14429;48.346;16.338;2024-02-14T08:35:24;12.25;;;6.97;;
26858;SDS011;14429;48.346;16.338;2024-02-14T08:37:50;4.78;;;2.10;;
26858;SDS011;14429;48.346;16.338;2024-02-14T08:40:16;4.93;;;1.85;;
26858;SDS011;14429;48.346;16.338;2024-02-14T08:42:41;2.38;;;1.80;;
26858;SDS011;14429;48.346;16.338;2024-02-14T08:45:07;3.55;;;1.73;;
26858;SDS011;14429;48.346;16.338;2024-02-14T08:47:33;14.77;;;7.32;;
26858;SDS011;14429;48.346;16.338;2024-02-14T08:49:59;11.98;;;4.90;;
26858;SDS011;14429;48.346;16.338;2024-02-14T08:52:24;6.10;;;4.13;;
26858;SDS011;14429;48.346;16.338;2024-02-14T08:54:51;5.70;;;3.00;;
26858;SDS011;14429;48.346;16.338;2024-02-14T08:57:16;6.78;;;3.80;;
26858;SDS011;14429;48.346;16.338;2024-02-14T08:59:42;8.13;;;5.13;;
26858;SDS011;14429;48.346;16.338;2024-02-14T09:02:07;4.95;;;3.50;;
26858;SDS011;14429;48.346;16.338;2024-02-14T09:04:33;7.22;;;3.45;;
26858;SDS011;14429;48.346;16.338;2024-02-14T09:06:58;7.25;;;3.70;;
26858;SDS011;14429;48.346;16.338;2024-02-14T09:09:23;9.10;;;4.22;;
26858;SDS011;14429;48.346;16.338;2024-02-14T09:11:50;7.32;;;4.05;;
26858;SDS011;14429;48.346;16.338;2024-02-14T09:14:16;4.72;;;3.45;;
26858;SDS011;14429;48.346;16.338;2024-02-14T09:16:41;10.25;;;4.45;;
26858;SDS011;14429;48.346;16.338;2024-02-14T09:19:06;3.95;;;3.40;;
26858;SDS011;14429;48.346;16.338;2024-02-14T09:21:32;7.38;;;4.30;;
26858;SDS011;14429;48.346;16.338;2024-02-14T09:23:57;8.10;;;4.03;;
26858;SDS011;14429;48.346;16.338;2024-02-14T09:26:23;6.20;;;3.85;;
26858;SDS011;14429;48.346;16.338;2024-02-14T09:28:50;6.43;;;3.88;;
26858;SDS011;14429;48.346;16.338;2024-02-14T09:31:18;7.25;;;4.43;;
26858;SDS011;14429;48.346;16.338;2024-02-14T09:33:44;5.63;;;3.47;;
26858;SDS011;14429;48.346;16.338;2024-02-14T09:36:09;4.78;;;3.63;;
26858;SDS011;14429;48.346;16.338;2024-02-14T09:38:34;9.27;;;4.03;;
26858;SDS011;14429;48.346;16.338;2024-02-14T09:41:02;12.57;;;3.67;;
26858;SDS011;14429;48.346;16.338;2024-02-14T09:43:35;6.03;;;3.75;;
26858;SDS011;14429;48.346;16.338;2024-02-14T09:46:04;9.68;;;3.95;;
26858;SDS011;14429;48.346;16.338;2024-02-14T09:48:30;6.93;;;3.55;;
26858;SDS011;14429;48.346;16.338;2024-02-14T09:50:56;7.03;;;4.05;;
26858;SDS011;14429;48.346;16.338;2024-02-14T09:53:21;7.25;;;4.03;;
26858;SDS011;14429;48.346;16.338;2024-02-14T09:55:48;5.80;;;3.78;;
26858;SDS011;14429;48.346;16.338;2024-02-14T09:58:14;8.35;;;3.47;;
26858;SDS011;14429;48.346;16.338;2024-02-14T10:00:40;5.13;;;3.92;;
26858;SDS011;14429;48.346;16.338;2024-02-14T10:03:07;6.35;;;3.53;;
26858;SDS011;14429;48.346;16.338;2024-02-14T10:05:33;6.47;;;3.85;;
26858;SDS011;14429;48.346;16.338;2024-02-14T10:07:58;6.28;;;3.22;;
26858;SDS011;14429;48.346;16.338;2024-02-14T10:10:24;6.45;;;3.70;;
26858;SDS011;14429;48.346;16.338;2024-02-14T10:12:50;5.35;;;3.33;;
26858;SDS011;14429;48.346;16.338;2024-02-14T10:15:15;4.72;;;3.35;;
26858;SDS011;14429;48.346;16.338;2024-02-14T10:17:41;5.80;;;3.50;;
26858;SDS011;14429;48.346;16.338;2024-02-14T10:20:08;5.07;;;3.50;;
26858;SDS011;14429;48.346;16.338;2024-02-14T10:22:35;4.88;;;3.10;;
26858;SDS011;14429;48.346;16.338;2024-02-14T10:25:00;6.75;;;3.25;;
26858;SDS011;14429;48.346;16.338;2024-02-14T10:27:26;5.68;;;2.97;;
26858;SDS011;14429;48.346;16.338;2024-02-14T10:29:51;4.90;;;3.15;;
26858;SDS011;14429;48.346;16.338;2024-02-14T10:32:20;11.90;;;3.78;;
26858;SDS011;14429;48.346;16.338;2024-02-14T10:34:47;5.05;;;2.90;;
26858;SDS011;14429;48.346;16.338;2024-02-14T10:37:14;4.95;;;3.28;;
26858;SDS011;14429;48.346;16.338;2024-02-14T10:39:41;5.68;;;3.38;;
26858;SDS011;14429;48.346;16.338;2024-02-14T10:42:07;4.82;;;3.50;;
26858;SDS011;14429;48.346;16.338;2024-02-14T10:44:32;6.25;;;3.47;;
26858;SDS011;14429;48.346;16.338;2024-02-14T10:46:58;9.52;;;3.92;;
26858;SDS011;14429;48.346;16.338;2024-02-14T10:49:27;4.55;;;3.30;;
26858;SDS011;14429;48.346;16.338;2024-02-14T10:51:54;4.38;;;3.47;;
26858;SDS011;14429;48.346;16.338;2024-02-14T10:54:22;5.68;;;2.92;;
26858;SDS011;14429;48.346;16.338;2024-02-14T10:56:49;4.95;;;2.70;;
26858;SDS011;14429;48.346;16.338;2024-02-14T10:59:16;6.68;;;3.88;;
26858;SDS011;14429;48.346;16.338;2024-02-14T11:01:43;9.65;;;3.35;;
26858;SDS011;14429;48.346;16.338;2024-02-14T11:04:09;8.60;;;3.40;;
26858;SDS011;14429;48.346;16.338;2024-02-14T11:06:43;4.13;;;3.00;;
26858;SDS011;14429;48.346;16.338;2024-02-14T11:09:11;3.97;;;2.15;;
26858;SDS011;14429;48.346;16.338;2024-02-14T11:11:38;6.60;;;3.17;;
26858;SDS011;14429;48.346;16.338;2024-02-14T11:14:04;6.85;;;3.30;;
26858;SDS011;14429;48.346;16.338;2024-02-14T11:16:31;10.15;;;3.25;;
26858;SDS011;14429;48.346;16.338;2024-02-14T11:19:05;4.43;;;2.63;;
26858;SDS011;14429;48.346;16.338;2024-02-14T11:21:31;6.20;;;3.33;;
26858;SDS011;14429;48.346;16.338;2024-02-14T11:24:04;5.95;;;3.10;;
26858;SDS011;14429;48.346;16.338;2024-02-14T11:26:37;9.07;;;3.65;;
26858;SDS011;14429;48.346;16.338;2024-02-14T11:29:04;11.73;;;2.60;;
26858;SDS011;14429;48.346;16.338;2024-02-14T11:31:33;7.68;;;3.15;;
26858;SDS011;14429;48.346;16.338;2024-02-14T11:34:02;5.43;;;2.95;;
26858;SDS011;14429;48.346;16.338;2024-02-14T11:36:28;3.65;;;1.88;;
26858;SDS011;14429;48.346;16.338;2024-02-14T11:38:53;5.53;;;2.92;;
26858;SDS011;14429;48.346;16.338;2024-02-14T11:41:19;32.70;;;6.82;;
26858;SDS011;14429;48.346;16.338;2024-02-14T11:43:51;28.15;;;6.00;;
26858;SDS011;14429;48.346;16.338;2024-02-14T11:46:17;6.90;;;2.90;;
26858;SDS011;14429;48.346;16.338;2024-02-14T11:48:42;3.95;;;2.20;;
26858;SDS011;14429;48.346;16.338;2024-02-14T11:51:08;5.57;;;2.38;;
26858;SDS011;14429;48.346;16.338;2024-02-14T11:53:34;5.03;;;2.75;;
26858;SDS011;14429;48.346;16.338;2024-02-14T11:56:00;2.80;;;1.58;;
26858;SDS011;14429;48.346;16.338;2024-02-14T11:58:25;4.47;;;2.63;;
26858;SDS011;14429;48.346;16.338;2024-02-14T12:01:02;4.65;;;2.75;;
26858;SDS011;14429;48.346;16.338;2024-02-14T12:03:28;4.47;;;3.08;;
26858;SDS011;14429;48.346;16.338;2024-02-14T12:05:54;2.28;;;1.83;;
26858;SDS011;14429;48.346;16.338;2024-02-14T12:08:20;4.05;;;2.63;;
26858;SDS011;14429;48.346;16.338;2024-02-14T12:10:47;4.80;;;2.17;;
26858;SDS011;14429;48.346;16.338;2024-02-14T12:13:12;3.33;;;2.67;;
26858;SDS011;14429;48.346;16.338;2024-02-14T12:15:39;9.27;;;2.78;;
26858;SDS011;14429;48.346;16.338;2024-02-14T12:18:07;5.32;;;2.47;;
26858;SDS011;14429;48.346;16.338;2024-02-14T12:20:33;2.88;;;1.90;;
26858;SDS011;14429;48.346;16.338;2024-02-14T12:22:59;8.02;;;2.67;;
26858;SDS011;14429;48.346;16.338;2024-02-14T12:25:24;2.40;;;1.02;;
26858;SDS011;14429;48.346;16.338;2024-02-14T12:27:50;4.88;;;2.72;;
26858;SDS011;14429;48.346;16.338;2024-02-14T12:30:17;4.95;;;2.58;;
26858;SDS011;14429;48.346;16.338;2024-02-14T12:32:42;6.55;;;2.90;;
26858;SDS011;14429;48.346;16.338;2024-02-14T12:35:10;7.10;;;2.30;;
26858;SDS011;14429;48.346;16.338;2024-02-14T12:37:35;2.88;;;1.83;;
26858;SDS011;14429;48.346;16.338;2024-02-14T12:40:01;2.85;;;2.45;;
26858;SDS011;14429;48.346;16.338;2024-02-14T12:42:26;2.38;;;1.98;;
26858;SDS011;14429;48.346;16.338;2024-02-14T12:44:53;1.83;;;1.58;;
26858;SDS011;14429;48.346;16.338;2024-02-14T12:47:19;5.57;;;2.60;;
26858;SDS011;14429;48.346;16.338;2024-02-14T12:49:45;3.72;;;2.15;;
26858;SDS011;14429;48.346;16.338;2024-02-14T12:52:12;2.90;;;2.42;;
26858;SDS011;14429;48.346;16.338;2024-02-14T12:54:37;3.35;;;2.35;;
26858;SDS011;14429;48.346;16.338;2024-02-14T12:57:02;4.88;;;2.67;;
26858;SDS011;14429;48.346;16.338;2024-02-14T12:59:28;3.13;;;2.08;;
26858;SDS011;14429;48.346;16.338;2024-02-14T13:01:54;3.10;;;2.33;;
26858;SDS011;14429;48.346;16.338;2024-02-14T13:04:19;3.33;;;2.40;;
26858;SDS011;14429;48.346;16.338;2024-02-14T13:06:45;2.88;;;1.77;;
26858;SDS011;14429;48.346;16.338;2024-02-14T13:09:11;3.25;;;2.08;;
26858;SDS011;14429;48.346;16.338;2024-02-14T13:11:37;2.47;;;2.08;;
26858;SDS011;14429;48.346;16.338;2024-02-14T13:14:03;6.57;;;2.63;;
26858;SDS011;14429;48.346;16.338;2024-02-14T13:16:28;3.03;;;1.90;;
26858;SDS011;14429;48.346;16.338;2024-02-14T13:18:54;3.17;;;2.33;;
26858;SDS011;14429;48.346;16.338;2024-02-14T13:21:19;4.75;;;2.10;;
26858;SDS011;14429;48.346;16.338;2024-02-14T13:23:44;2.60;;;2.28;;
26858;SDS011;14429;48.346;16.338;2024-02-14T13:26:11;6.85;;;2.13;;
26858;SDS011;14429;48.346;16.338;2024-02-14T13:28:36;2.55;;;1.90;;
26858;SDS011;14429;48.346;16.338;2024-02-14T13:31:02;2.45;;;2.00;;
26858;SDS011;14429;48.346;16.338;2024-02-14T13:33:27;2.13;;;1.52;;
26858;SDS011;14429;48.346;16.338;2024-02-14T13:35:53;2.15;;;1.90;;
26858;SDS011;14429;48.346;16.338;2024-02-14T13:38:18;5.82;;;1.83;;
26858;SDS011;14429;48.346;16.338;2024-02-14T13:40:44;6.07;;;1.90;;
26858;SDS011;14429;48.346;16.338;2024-02-14T13:43:10;3.17;;;1.92;;
26858;SDS011;14429;48.346;16.338;2024-02-14T13:45:40;2.83;;;1.65;;
26858;SDS011;14429;48.346;16.338;2024-02-14T13:48:06;2.95;;;1.92;;
26858;SDS011;14429;48.346;16.338;2024-02-14T13:50:32;3.13;;;1.85;;
26858;SDS011;14429;48.346;16.338;2024-02-14T13:52:57;2.42;;;1.80;;
26858;SDS011;14429;48.346;16.338;2024-02-14T13:55:23;3.17;;;1.65;;
26858;SDS011;14429;48.346;16.338;2024-02-14T13:57:48;4.15;;;2.00;;
26858;SDS011;14429;48.346;16.338;2024-02-14T14:00:15;2.28;;;1.73;;
26858;SDS011;14429;48.346;16.338;2024-02-14T14:02:40;3.08;;;1.58;;
26858;SDS011;14429;48.346;16.338;2024-02-14T14:05:06;1.50;;;1.40;;
26858;SDS011;14429;48.346;16.338;2024-02-14T14:07:32;2.58;;;2.10;;
26858;SDS011;14429;48.346;16.338;2024-02-14T14:09:57;2.50;;;1.85;;
26858;SDS011;14429;48.346;16.338;2024-02-14T14:12:22;2.90;;;1.98;;
26858;SDS011;14429;48.346;16.338;2024-02-14T14:14:48;3.20;;;1.90;;
26858;SDS011;14429;48.346;16.338;2024-02-14T14:17:14;3.40;;;1.58;;
26858;SDS011;14429;48.346;16.338;2024-02-14T14:19:40;2.83;;;1.55;;
26858;SDS011;14429;48.346;16.338;2024-02-14T14:22:05;1.90;;;1.65;;
26858;SDS011;14429;48.346;16.338;2024-02-14T14:24:31;1.80;;;1.45;;